createdAt,value
2022-11-04T00:00:31.304Z,9.35
2022-11-04T00:01:35.195Z,8.55
2022-11-04T00:02:38.288Z,10.07
2022-11-04T00:03:41.379Z,9.70
2022-11-04T00:04:44.304Z,9.52
2022-11-04T00:05:47.226Z,8.82
2022-11-04T00:06:50.764Z,9.98
2022-11-04T00:08:13.979Z,9.40
2022-11-04T00:09:24.390Z,9.07
2022-11-04T00:10:47.462Z,9.07
2022-11-04T00:12:10.005Z,8.82
2022-11-04T00:13:13.047Z,8.85
2022-11-04T00:14:17.000Z,9.27
2022-11-04T00:15:38.576Z,8.63
2022-11-04T00:17:01.160Z,8.10
2022-11-04T00:18:04.472Z,8.60
2022-11-04T00:19:07.481Z,9.15
2022-11-04T00:20:29.851Z,9.45
2022-11-04T00:21:51.722Z,9.40
2022-11-04T00:23:13.759Z,8.65
2022-11-04T00:24:35.635Z,8.85
2022-11-04T00:25:57.405Z,8.27
2022-11-04T00:27:19.427Z,8.55
2022-11-04T00:28:41.312Z,9.50
2022-11-04T00:29:45.046Z,8.90
2022-11-04T00:30:48.216Z,8.70
2022-11-04T00:32:09.599Z,9.15
2022-11-04T00:33:27.532Z,8.85
2022-11-04T00:34:30.637Z,9.27
2022-11-04T00:35:33.643Z,8.88
2022-11-04T00:36:36.564Z,8.55
2022-11-04T00:37:41.296Z,8.75
2022-11-04T00:38:44.693Z,8.10
2022-11-04T00:39:47.695Z,9.82
2022-11-04T00:40:50.959Z,9.48
2022-11-04T00:41:54.679Z,8.75
2022-11-04T00:42:57.765Z,8.88
2022-11-04T00:44:05.693Z,8.82
2022-11-04T00:45:09.998Z,9.32
2022-11-04T00:46:12.891Z,9.85
2022-11-04T00:47:15.867Z,9.60
2022-11-04T00:48:18.833Z,8.05
2022-11-04T00:49:21.847Z,9.98
2022-11-04T00:50:24.890Z,8.55
2022-11-04T00:51:28.359Z,7.50
2022-11-04T00:52:31.322Z,9.05
2022-11-04T00:53:34.344Z,9.00
2022-11-04T00:54:37.431Z,8.30
2022-11-04T00:55:40.403Z,8.52
2022-11-04T00:56:43.651Z,7.70
2022-11-04T00:57:46.667Z,8.57
2022-11-04T00:58:50.459Z,8.30
2022-11-04T00:59:53.593Z,9.40
2022-11-04T01:00:56.569Z,7.78
2022-11-04T01:01:59.838Z,8.93
2022-11-04T01:03:02.940Z,8.45
2022-11-04T01:04:06.047Z,8.70
2022-11-04T01:05:09.823Z,8.82
2022-11-04T01:06:12.857Z,8.57
2022-11-04T01:07:15.977Z,8.98
2022-11-04T01:08:18.990Z,7.82
2022-11-04T01:09:21.958Z,10.45
2022-11-04T01:10:24.974Z,8.15
2022-11-04T01:11:29.496Z,7.57
2022-11-04T01:12:32.738Z,9.50
2022-11-04T01:13:36.125Z,8.30
2022-11-04T01:14:39.157Z,8.77
2022-11-04T01:15:44.644Z,7.97
2022-11-04T01:16:50.329Z,8.55
2022-11-04T01:17:53.450Z,9.32
2022-11-04T01:18:56.653Z,9.07
2022-11-04T01:19:59.601Z,8.88
2022-11-04T01:21:05.278Z,8.07
2022-11-04T01:22:08.250Z,8.35
2022-11-04T01:23:11.265Z,8.02
2022-11-04T01:24:14.227Z,8.75
2022-11-04T01:25:17.433Z,8.02
2022-11-04T01:26:23.971Z,8.73
2022-11-04T01:27:26.948Z,7.22
2022-11-04T01:28:29.994Z,7.68
2022-11-04T01:29:32.963Z,7.75
2022-11-04T01:30:39.253Z,8.10
2022-11-04T01:31:42.187Z,8.43
2022-11-04T01:32:45.162Z,7.90
2022-11-04T01:33:49.701Z,8.32
2022-11-04T01:34:52.654Z,9.07
2022-11-04T01:36:00.426Z,7.82
2022-11-04T01:37:03.412Z,8.48
2022-11-04T01:38:06.732Z,7.63
2022-11-04T01:39:11.366Z,8.48
2022-11-04T01:40:14.502Z,8.18
2022-11-04T01:41:31.485Z,8.68
2022-11-04T01:42:34.603Z,7.93
2022-11-04T01:43:59.668Z,9.27
2022-11-04T01:45:02.668Z,7.88
2022-11-04T01:46:05.915Z,8.15
2022-11-04T01:47:25.009Z,8.13
2022-11-04T01:48:34.145Z,7.95
2022-11-04T01:49:43.359Z,8.30
2022-11-04T01:50:47.127Z,7.30
2022-11-04T01:51:54.127Z,7.43
2022-11-04T01:53:05.883Z,7.25
2022-11-04T01:54:11.355Z,8.75
2022-11-04T01:55:23.372Z,7.45
2022-11-04T01:56:28.199Z,7.20
2022-11-04T01:57:37.055Z,8.07
2022-11-04T01:58:51.776Z,7.65
2022-11-04T01:59:55.486Z,6.90
2022-11-04T02:01:00.021Z,8.27
2022-11-04T02:02:04.314Z,7.20
2022-11-04T02:03:17.366Z,8.73
2022-11-04T02:04:26.882Z,8.18
2022-11-04T02:05:30.987Z,7.30
2022-11-04T02:06:34.087Z,6.95
2022-11-04T02:07:37.678Z,7.22
2022-11-04T02:08:42.127Z,7.15
2022-11-04T02:09:45.328Z,7.93
2022-11-04T02:10:58.285Z,6.65
2022-11-04T02:12:20.142Z,6.68
2022-11-04T02:13:23.375Z,7.57
2022-11-04T02:14:26.785Z,7.82
2022-11-04T02:16:22.276Z,7.80
2022-11-04T02:18:34.275Z,7.22
2022-11-04T02:19:45.312Z,7.15
2022-11-04T02:21:28.209Z,6.72
2022-11-04T02:23:07.352Z,7.10
2022-11-04T02:24:56.514Z,7.00
2022-11-04T02:26:37.994Z,7.35
2022-11-04T02:28:31.691Z,7.57
2022-11-04T02:29:52.446Z,7.70
2022-11-04T02:31:42.487Z,6.80
2022-11-04T02:32:57.077Z,6.88
2022-11-04T02:34:17.896Z,6.22
2022-11-04T02:35:51.133Z,5.88
2022-11-04T02:37:09.532Z,6.22
2022-11-04T02:38:17.267Z,7.45
2022-11-04T02:39:37.805Z,7.90
2022-11-04T02:40:52.654Z,6.85
2022-11-04T02:42:37.880Z,7.10
2022-11-04T02:43:58.146Z,6.40
2022-11-04T02:45:36.140Z,6.57
2022-11-04T02:46:57.399Z,7.78
2022-11-04T02:48:50.132Z,6.60
2022-11-04T02:50:06.064Z,6.50
2022-11-04T02:51:18.719Z,6.85
2022-11-04T02:52:45.853Z,7.38
2022-11-04T02:54:33.296Z,7.28
2022-11-04T02:55:43.414Z,6.25
2022-11-04T02:56:51.170Z,7.25
2022-11-04T02:57:59.958Z,6.70
2022-11-04T02:59:17.443Z,7.35
2022-11-04T03:00:21.541Z,6.93
2022-11-04T03:01:29.898Z,7.00
2022-11-04T03:02:58.854Z,6.55
2022-11-04T03:04:14.245Z,6.60
2022-11-04T03:05:27.655Z,6.72
2022-11-04T03:06:33.622Z,6.72
2022-11-04T03:07:41.149Z,6.93
2022-11-04T03:08:51.579Z,6.10
2022-11-04T03:10:01.582Z,6.13
2022-11-04T03:11:21.757Z,6.05
2022-11-04T03:12:37.658Z,6.45
2022-11-04T03:14:10.738Z,6.68
2022-11-04T03:15:23.015Z,6.38
2022-11-04T03:16:39.535Z,6.65
2022-11-04T03:17:52.756Z,5.43
2022-11-04T03:19:32.410Z,6.30
2022-11-04T03:20:39.909Z,6.18
2022-11-04T03:22:00.621Z,6.20
2022-11-04T03:23:04.373Z,5.82
2022-11-04T03:24:07.521Z,6.28
2022-11-04T03:25:11.067Z,6.32
2022-11-04T03:26:49.355Z,6.15
2022-11-04T03:28:25.175Z,6.32
2022-11-04T03:29:32.242Z,6.28
2022-11-04T03:30:44.458Z,6.07
2022-11-04T03:31:52.506Z,6.07
2022-11-04T03:33:46.328Z,8.40
2022-11-04T03:34:49.935Z,7.18
2022-11-04T03:35:53.235Z,6.40
2022-11-04T03:36:57.565Z,6.00
2022-11-04T03:38:00.742Z,6.35
2022-11-04T03:39:03.818Z,6.72
2022-11-04T03:40:08.372Z,6.75
2022-11-04T03:41:31.957Z,5.95
2022-11-04T03:42:44.629Z,6.30
2022-11-04T03:43:47.731Z,6.43
2022-11-04T03:44:54.195Z,6.55
2022-11-04T03:45:57.363Z,5.75
2022-11-04T03:47:00.415Z,6.15
2022-11-04T03:48:05.263Z,6.50
2022-11-04T03:49:10.013Z,5.53
2022-11-04T03:50:26.386Z,5.80
2022-11-04T03:51:29.750Z,5.90
2022-11-04T03:52:33.143Z,5.90
2022-11-04T03:53:36.862Z,5.18
2022-11-04T03:54:40.233Z,6.78
2022-11-04T03:56:33.666Z,6.72
2022-11-04T03:57:57.734Z,6.57
2022-11-04T03:59:50.903Z,6.30
2022-11-04T04:01:11.107Z,5.80
2022-11-04T04:02:31.281Z,5.93
2022-11-04T04:03:46.672Z,5.97
2022-11-04T04:05:17.773Z,6.00
2022-11-04T04:06:30.231Z,5.82
2022-11-04T04:07:40.107Z,5.22
2022-11-04T04:09:05.609Z,5.85
2022-11-04T04:10:59.813Z,5.50
2022-11-04T04:12:35.349Z,6.35
2022-11-04T04:14:38.474Z,5.70
2022-11-04T04:15:59.809Z,5.78
2022-11-04T04:17:14.579Z,5.95
2022-11-04T04:18:26.374Z,5.72
2022-11-04T04:19:31.356Z,5.93
2022-11-04T04:20:38.246Z,5.00
2022-11-04T04:22:24.119Z,5.90
2022-11-04T04:23:50.124Z,6.20
2022-11-04T04:25:17.148Z,6.15
2022-11-04T04:26:41.097Z,5.60
2022-11-04T04:27:47.998Z,6.03
2022-11-04T04:28:54.585Z,6.32
2022-11-04T04:30:13.412Z,5.68
2022-11-04T04:31:37.374Z,5.40
2022-11-04T04:32:59.512Z,5.30
2022-11-04T04:34:03.501Z,5.85
2022-11-04T04:35:27.274Z,5.55
2022-11-04T04:36:33.776Z,6.30
2022-11-04T04:37:37.525Z,5.38
2022-11-04T04:39:01.550Z,5.13
2022-11-04T04:40:25.298Z,5.93
2022-11-04T04:41:49.647Z,4.97
2022-11-04T04:43:12.243Z,6.13
2022-11-04T04:44:45.754Z,5.47
2022-11-04T04:45:53.992Z,4.82
2022-11-04T04:46:58.490Z,5.30
2022-11-04T04:48:01.801Z,5.65
2022-11-04T04:49:09.662Z,5.85
2022-11-04T04:50:19.664Z,5.35
2022-11-04T04:51:23.715Z,5.85
2022-11-04T04:52:41.800Z,5.90
2022-11-04T04:53:44.779Z,5.97
2022-11-04T04:54:47.804Z,5.75
2022-11-04T04:55:50.983Z,6.40
2022-11-04T04:56:54.008Z,5.53
2022-11-04T04:57:57.414Z,5.75
2022-11-04T04:59:00.378Z,5.85
2022-11-04T05:00:06.404Z,6.05
2022-11-04T05:01:09.515Z,6.53
2022-11-04T05:02:13.399Z,5.80
2022-11-04T05:03:16.545Z,5.63
2022-11-04T05:04:19.532Z,6.10
2022-11-04T05:05:22.485Z,7.15
2022-11-04T05:06:25.798Z,5.60
2022-11-04T05:07:28.850Z,6.10
2022-11-04T05:08:31.992Z,6.20
2022-11-04T05:09:34.957Z,6.03
2022-11-04T05:10:38.002Z,6.95
2022-11-04T05:11:41.003Z,6.03
2022-11-04T05:13:02.503Z,6.03
2022-11-04T05:14:05.465Z,7.28
2022-11-04T05:15:09.063Z,6.00
2022-11-04T05:16:12.200Z,5.75
2022-11-04T05:17:15.743Z,6.40
2022-11-04T05:18:19.770Z,5.60
2022-11-04T05:19:22.797Z,6.38
2022-11-04T05:20:26.802Z,6.35
2022-11-04T05:21:29.814Z,6.85
2022-11-04T05:22:32.731Z,7.63
2022-11-04T05:23:35.988Z,6.80
2022-11-04T05:24:39.034Z,6.28
2022-11-04T05:25:42.638Z,6.97
2022-11-04T05:26:45.653Z,7.55
2022-11-04T05:27:48.589Z,6.90
2022-11-04T05:28:51.544Z,7.28
2022-11-04T05:29:54.600Z,7.15
2022-11-04T05:30:58.286Z,7.30
2022-11-04T05:32:01.279Z,6.53
2022-11-04T05:33:05.426Z,6.38
2022-11-04T05:34:11.848Z,6.65
2022-11-04T05:35:14.897Z,7.32
2022-11-04T05:36:18.213Z,6.40
2022-11-04T05:37:21.203Z,7.75
2022-11-04T05:38:24.281Z,7.10
2022-11-04T05:39:27.368Z,5.95
2022-11-04T05:40:30.417Z,7.78
2022-11-04T05:41:34.528Z,6.28
2022-11-04T05:42:37.916Z,6.97
2022-11-04T05:43:41.126Z,6.90
2022-11-04T05:44:44.116Z,6.88
2022-11-04T05:45:47.098Z,6.95
2022-11-04T05:46:50.151Z,6.68
2022-11-04T05:48:01.719Z,5.97
2022-11-04T05:49:05.223Z,6.10
2022-11-04T05:50:08.829Z,6.70
2022-11-04T05:51:17.703Z,5.28
2022-11-04T05:52:20.678Z,6.43
2022-11-04T05:53:23.754Z,6.30
2022-11-04T05:54:27.642Z,7.03
2022-11-04T05:55:30.675Z,5.63
2022-11-04T05:56:33.789Z,6.03
2022-11-04T05:57:38.327Z,6.30
2022-11-04T05:58:41.433Z,5.95
2022-11-04T05:59:45.389Z,6.20
2022-11-04T06:00:48.411Z,6.38
2022-11-04T06:01:51.512Z,6.05
2022-11-04T06:02:57.382Z,5.82
2022-11-04T06:04:02.211Z,7.68
2022-11-04T06:05:05.949Z,6.15
2022-11-04T06:06:08.937Z,6.50
2022-11-04T06:07:12.175Z,5.53
2022-11-04T06:08:15.143Z,6.68
2022-11-04T06:09:18.195Z,5.80
2022-11-04T06:10:21.222Z,6.45
2022-11-04T06:11:25.989Z,6.00
2022-11-04T06:12:28.975Z,6.38
2022-11-04T06:13:32.129Z,6.07
2022-11-04T06:14:35.079Z,5.72
2022-11-04T06:15:38.130Z,6.65
2022-11-04T06:16:41.068Z,6.07
2022-11-04T06:17:43.990Z,6.38
2022-11-04T06:18:46.980Z,5.97
2022-11-04T06:19:50.074Z,5.20
2022-11-04T06:21:13.256Z,6.45
2022-11-04T06:22:19.303Z,6.43
2022-11-04T06:23:22.244Z,6.18
2022-11-04T06:24:25.494Z,6.00
2022-11-04T06:25:31.099Z,5.97
2022-11-04T06:26:34.911Z,6.07
2022-11-04T06:27:37.916Z,6.57
2022-11-04T06:28:41.122Z,6.18
2022-11-04T06:29:44.270Z,5.88
2022-11-04T06:30:47.335Z,6.63
2022-11-04T06:31:50.417Z,6.32
2022-11-04T06:32:53.437Z,6.28
2022-11-04T06:33:56.493Z,6.30
2022-11-04T06:34:59.584Z,4.95
2022-11-04T06:36:05.740Z,5.93
2022-11-04T06:37:09.767Z,6.03
2022-11-04T06:38:12.699Z,5.45
2022-11-04T06:39:16.230Z,5.95
2022-11-04T06:40:19.195Z,7.13
2022-11-04T06:41:22.219Z,7.03
2022-11-04T06:42:26.896Z,5.95
2022-11-04T06:43:30.070Z,5.03
2022-11-04T06:44:34.546Z,6.00
2022-11-04T06:45:37.581Z,5.68
2022-11-04T06:46:42.644Z,6.07
2022-11-04T06:47:45.848Z,5.43
2022-11-04T06:48:48.832Z,5.47
2022-11-04T06:49:52.011Z,6.13
2022-11-04T06:50:55.034Z,6.40
2022-11-04T06:51:58.084Z,5.63
2022-11-04T06:53:01.105Z,6.35
2022-11-04T06:54:05.000Z,6.05
2022-11-04T06:55:09.147Z,5.95
2022-11-04T06:56:12.092Z,5.60
2022-11-04T06:57:15.210Z,5.45
2022-11-04T06:58:18.246Z,5.72
2022-11-04T06:59:21.690Z,5.45
2022-11-04T07:00:25.250Z,5.35
2022-11-04T07:01:31.678Z,5.47
2022-11-04T07:02:35.079Z,5.90
2022-11-04T07:03:38.078Z,6.20
2022-11-04T07:04:41.040Z,5.93
2022-11-04T07:05:43.953Z,6.50
2022-11-04T07:06:46.999Z,5.68
2022-11-04T07:07:49.956Z,6.88
2022-11-04T07:08:53.710Z,6.07
2022-11-04T07:09:57.136Z,6.55
2022-11-04T07:11:00.266Z,6.55
2022-11-04T07:12:03.418Z,5.47
2022-11-04T07:13:06.568Z,5.60
2022-11-04T07:14:10.863Z,5.90
2022-11-04T07:15:14.262Z,5.47
2022-11-04T07:16:18.825Z,5.93
2022-11-04T07:17:21.763Z,6.30
2022-11-04T07:18:24.985Z,6.40
2022-11-04T07:19:28.009Z,6.03
2022-11-04T07:20:31.222Z,5.93
2022-11-04T07:21:34.486Z,6.45
2022-11-04T07:22:37.470Z,5.85
2022-11-04T07:23:40.719Z,6.35
2022-11-04T07:24:43.839Z,5.53
2022-11-04T07:25:46.917Z,5.97
2022-11-04T07:26:50.206Z,5.07
2022-11-04T07:27:55.520Z,6.07
2022-11-04T07:29:01.153Z,6.20
2022-11-04T07:30:04.391Z,5.95
2022-11-04T07:31:09.188Z,6.20
2022-11-04T07:32:12.336Z,5.72
2022-11-04T07:33:15.462Z,6.70
2022-11-04T07:34:18.504Z,6.30
2022-11-04T07:35:21.612Z,6.30
2022-11-04T07:36:24.572Z,5.50
2022-11-04T07:37:27.626Z,5.65
2022-11-04T07:38:30.719Z,6.40
2022-11-04T07:39:33.868Z,6.32
2022-11-04T07:40:36.841Z,7.18
2022-11-04T07:41:39.875Z,6.53
2022-11-04T07:42:42.852Z,5.97
2022-11-04T07:43:53.383Z,6.05
2022-11-04T07:44:56.462Z,6.60
2022-11-04T07:46:11.103Z,6.50
2022-11-04T07:47:14.469Z,5.80
2022-11-04T07:48:17.587Z,6.57
2022-11-04T07:49:20.636Z,6.15
2022-11-04T07:50:23.829Z,7.32
2022-11-04T07:51:27.578Z,6.28
2022-11-04T07:52:30.554Z,6.13
2022-11-04T07:53:34.182Z,6.13
2022-11-04T07:54:37.355Z,6.00
2022-11-04T07:55:43.352Z,5.78
2022-11-04T07:56:46.923Z,6.60
2022-11-04T07:57:49.924Z,5.70
2022-11-04T07:58:53.172Z,6.68
2022-11-04T07:59:56.481Z,6.93
2022-11-04T08:01:18.966Z,6.65
2022-11-04T08:02:25.952Z,5.60
2022-11-04T08:03:31.798Z,5.25
2022-11-04T08:04:34.846Z,5.85
2022-11-04T08:05:37.805Z,5.78
2022-11-04T08:06:40.812Z,6.35
2022-11-04T08:07:43.897Z,5.43
2022-11-04T08:08:48.399Z,6.72
2022-11-04T08:09:51.505Z,6.60
2022-11-04T08:11:11.483Z,6.13
2022-11-04T08:12:17.443Z,6.70
2022-11-04T08:13:20.482Z,6.38
2022-11-04T08:14:23.437Z,6.68
2022-11-04T08:15:26.484Z,7.13
2022-11-04T08:16:34.101Z,6.22
2022-11-04T08:17:37.604Z,6.40
2022-11-04T08:18:42.039Z,6.78
2022-11-04T08:19:45.286Z,6.30
2022-11-04T08:20:52.831Z,6.63
2022-11-04T08:21:55.895Z,6.53
2022-11-04T08:22:58.845Z,6.70
2022-11-04T08:24:04.072Z,5.95
2022-11-04T08:25:07.675Z,7.55
2022-11-04T08:26:18.450Z,6.15
2022-11-04T08:27:23.138Z,6.80
2022-11-04T08:28:27.484Z,6.18
2022-11-04T08:29:30.442Z,5.70
2022-11-04T08:30:33.717Z,6.18
2022-11-04T08:31:37.446Z,5.85
2022-11-04T08:32:40.617Z,6.57
2022-11-04T08:33:44.610Z,6.50
2022-11-04T08:34:47.767Z,7.30
2022-11-04T08:35:51.112Z,7.00
2022-11-04T08:36:57.396Z,6.60
2022-11-04T08:38:00.476Z,7.43
2022-11-04T08:39:10.296Z,6.03
2022-11-04T08:40:14.151Z,8.57
2022-11-04T08:41:20.836Z,6.38
2022-11-04T08:42:24.008Z,6.03
2022-11-04T08:43:27.502Z,6.65
2022-11-04T08:44:30.501Z,6.28
2022-11-04T08:45:33.889Z,6.65
2022-11-04T08:46:40.525Z,6.93
2022-11-04T08:47:44.279Z,6.47
2022-11-04T08:48:47.442Z,6.20
2022-11-04T08:49:50.650Z,6.45
2022-11-04T08:50:58.911Z,7.18
2022-11-04T08:52:02.128Z,7.25
2022-11-04T08:53:06.293Z,6.07
2022-11-04T08:54:09.570Z,7.10
2022-11-04T08:55:12.897Z,7.55
2022-11-04T08:56:22.428Z,7.32
2022-11-04T08:57:25.506Z,6.85
2022-11-04T08:58:28.703Z,6.13
2022-11-04T08:59:31.795Z,7.05
2022-11-04T09:00:34.901Z,7.65
2022-11-04T09:01:38.401Z,7.05
2022-11-04T09:02:41.510Z,7.07
2022-11-04T09:03:44.917Z,7.30
2022-11-04T09:04:48.004Z,6.47
2022-11-04T09:05:51.019Z,6.78
2022-11-04T09:06:56.318Z,6.53
2022-11-04T09:08:01.181Z,6.50
2022-11-04T09:09:06.979Z,7.65
2022-11-04T09:10:11.087Z,7.53
2022-11-04T09:11:16.518Z,6.75
2022-11-04T09:12:19.454Z,6.15
2022-11-04T09:13:22.595Z,6.22
2022-11-04T09:14:25.968Z,7.22
2022-11-04T09:15:29.058Z,7.00
2022-11-04T09:16:35.145Z,7.78
2022-11-04T09:17:38.214Z,8.00
2022-11-04T09:18:41.660Z,7.03
2022-11-04T09:19:44.622Z,7.10
2022-11-04T09:20:47.597Z,6.90
2022-11-04T09:21:50.609Z,6.80
2022-11-04T09:22:54.326Z,7.18
2022-11-04T09:23:57.389Z,6.18
2022-11-04T09:25:00.431Z,6.70
2022-11-04T09:26:11.234Z,7.32
2022-11-04T09:28:17.737Z,6.43
2022-11-04T09:29:20.886Z,7.13
2022-11-04T09:30:23.852Z,6.90
2022-11-04T09:31:29.603Z,6.30
2022-11-04T09:32:32.540Z,7.43
2022-11-04T09:33:35.580Z,6.55
2022-11-04T09:34:38.524Z,7.15
2022-11-04T09:35:41.492Z,7.45
2022-11-04T09:36:44.954Z,8.30
2022-11-04T09:37:47.933Z,6.93
2022-11-04T09:38:51.027Z,7.03
2022-11-04T09:39:54.179Z,6.43
2022-11-04T09:40:59.073Z,6.50
2022-11-04T09:42:51.803Z,7.13
2022-11-04T09:44:09.941Z,6.70
2022-11-04T09:45:22.144Z,7.43
2022-11-04T09:46:29.488Z,7.57
2022-11-04T09:47:34.756Z,7.28
2022-11-04T09:48:47.295Z,7.40
2022-11-04T09:49:55.189Z,7.15
2022-11-04T09:51:03.590Z,7.13
2022-11-04T09:52:21.408Z,6.75
2022-11-04T09:53:56.449Z,7.15
2022-11-04T09:55:23.018Z,7.28
2022-11-04T09:56:31.992Z,7.03
2022-11-04T09:57:35.141Z,7.20
2022-11-04T09:58:39.290Z,6.57
2022-11-04T09:59:42.338Z,7.43
2022-11-04T10:01:02.989Z,8.60
2022-11-04T10:02:20.689Z,8.13
2022-11-04T10:03:48.522Z,7.70
2022-11-04T10:05:04.750Z,6.88
2022-11-04T10:06:31.000Z,6.93
2022-11-04T10:08:01.178Z,6.95
2022-11-04T10:09:30.269Z,7.23
2022-11-04T10:10:57.508Z,7.55
2022-11-04T10:12:26.112Z,7.07
2022-11-04T10:13:58.082Z,6.97
2022-11-04T10:15:45.506Z,6.95
2022-11-04T10:17:18.714Z,6.60
2022-11-04T10:19:14.799Z,7.00
2022-11-04T10:20:48.008Z,6.90
2022-11-04T10:22:32.620Z,7.50
2022-11-04T10:24:06.916Z,6.32
2022-11-04T10:25:25.430Z,6.95
2022-11-04T10:27:00.698Z,6.32
2022-11-04T10:28:05.643Z,7.05
2022-11-04T10:29:16.834Z,6.90
2022-11-04T10:30:23.421Z,6.60
2022-11-04T10:31:26.708Z,6.20
2022-11-04T10:32:59.560Z,6.80
2022-11-04T10:34:12.784Z,7.15
2022-11-04T10:35:31.565Z,6.18
2022-11-04T10:36:37.004Z,6.95
2022-11-04T10:37:40.028Z,7.95
2022-11-04T10:38:51.677Z,7.20
2022-11-04T10:40:23.281Z,6.60
2022-11-04T10:41:38.967Z,5.93
2022-11-04T10:42:42.058Z,7.20
2022-11-04T10:43:45.478Z,6.90
2022-11-04T10:44:51.970Z,6.70
2022-11-04T10:46:38.780Z,6.93
2022-11-04T10:47:56.270Z,7.07
2022-11-04T10:49:08.551Z,7.07
2022-11-04T10:50:41.378Z,6.20
2022-11-04T10:51:45.417Z,6.53
2022-11-04T10:52:48.478Z,8.73
2022-11-04T10:53:59.617Z,6.40
2022-11-04T10:55:03.075Z,6.30
2022-11-04T10:56:34.231Z,6.03
2022-11-04T10:57:38.527Z,6.25
2022-11-04T10:58:48.225Z,5.63
2022-11-04T10:59:56.411Z,6.88
2022-11-04T11:01:00.592Z,6.18
2022-11-04T11:02:04.967Z,6.50
2022-11-04T11:03:29.578Z,5.90
2022-11-04T11:04:35.941Z,6.53
2022-11-04T11:05:39.185Z,6.50
2022-11-04T11:06:43.067Z,6.88
2022-11-04T11:07:53.192Z,6.63
2022-11-04T11:09:30.745Z,6.80
2022-11-04T11:10:34.932Z,6.15
2022-11-04T11:11:50.617Z,6.50
2022-11-04T11:13:10.123Z,6.75
2022-11-04T11:14:28.095Z,6.43
2022-11-04T11:15:38.033Z,6.57
2022-11-04T11:16:41.143Z,5.82
2022-11-04T11:17:44.858Z,5.78
2022-11-04T11:19:17.793Z,7.55
2022-11-04T11:20:25.037Z,6.07
2022-11-04T11:21:41.744Z,6.82
2022-11-04T11:22:47.695Z,6.47
2022-11-04T11:23:54.596Z,5.65
2022-11-04T11:25:31.094Z,6.25
2022-11-04T11:26:34.245Z,6.55
2022-11-04T11:27:37.363Z,6.32
2022-11-04T11:28:41.706Z,6.90
2022-11-04T11:29:53.412Z,5.88
2022-11-04T11:31:05.739Z,6.90
2022-11-04T11:32:35.665Z,6.60
2022-11-04T11:33:50.869Z,6.28
2022-11-04T11:34:53.981Z,6.28
2022-11-04T11:36:16.358Z,6.25
2022-11-04T11:37:24.748Z,7.22
2022-11-04T11:38:31.220Z,5.55
2022-11-04T11:39:35.985Z,6.10
2022-11-04T11:40:47.595Z,6.28
2022-11-04T11:42:16.232Z,6.90
2022-11-04T11:43:32.722Z,6.55
2022-11-04T11:44:44.645Z,5.70
2022-11-04T11:45:50.039Z,6.85
2022-11-04T11:46:56.509Z,6.70
2022-11-04T11:47:59.586Z,6.25
2022-11-04T11:49:05.927Z,6.30
2022-11-04T11:50:29.906Z,6.57
2022-11-04T11:51:37.757Z,5.93
2022-11-04T11:52:43.638Z,6.68
2022-11-04T11:54:26.130Z,6.53
2022-11-04T11:55:38.343Z,6.72
2022-11-04T12:02:28.608Z,6.80
2022-11-04T12:09:15.480Z,7.50
2022-11-04T12:10:51.738Z,6.80
2022-11-04T12:12:45.987Z,7.60
2022-11-04T12:14:10.057Z,6.07
2022-11-04T12:16:06.634Z,6.18
2022-11-04T12:17:38.107Z,6.57
2022-11-04T12:19:08.256Z,6.97
2022-11-04T12:20:40.258Z,6.47
2022-11-04T12:21:50.077Z,6.43
2022-11-04T12:23:39.552Z,6.70
2022-11-04T12:24:47.956Z,6.18
2022-11-04T12:26:04.677Z,5.60
2022-11-04T12:27:41.552Z,7.13
2022-11-04T12:28:59.995Z,6.75
2022-11-04T12:30:18.724Z,6.45
2022-11-04T12:31:43.109Z,6.03
2022-11-04T12:33:01.430Z,5.80
2022-11-04T12:34:52.976Z,6.18
2022-11-04T12:36:44.438Z,6.13
2022-11-04T12:38:11.485Z,5.82
2022-11-04T12:39:34.852Z,6.60
2022-11-04T12:43:25.784Z,5.95
2022-11-04T12:44:42.241Z,5.80
2022-11-04T12:46:30.087Z,6.30
2022-11-04T12:47:37.844Z,5.90
2022-11-04T12:48:56.846Z,6.05
2022-11-04T12:50:30.430Z,6.05
2022-11-04T12:52:09.453Z,6.03
2022-11-04T12:53:45.096Z,5.80
2022-11-04T12:55:17.689Z,6.00
2022-11-04T12:56:28.705Z,5.63
2022-11-04T12:57:44.572Z,5.60
2022-11-04T12:59:41.974Z,6.25
2022-11-04T13:00:48.871Z,5.55
2022-11-04T13:02:24.132Z,6.93
2022-11-04T13:03:58.383Z,6.13
2022-11-04T13:05:21.533Z,5.82
2022-11-04T13:06:53.934Z,6.63
2022-11-04T13:08:33.312Z,5.78
2022-11-04T13:09:42.670Z,5.88
2022-11-04T13:11:03.460Z,7.15
2022-11-04T13:12:14.310Z,6.80
2022-11-04T13:13:22.628Z,6.35
2022-11-04T13:14:32.342Z,6.55
2022-11-04T13:15:52.332Z,6.13
2022-11-04T13:17:03.960Z,5.90
2022-11-04T13:18:14.584Z,6.72
2022-11-04T13:19:56.446Z,6.57
2022-11-04T13:21:38.240Z,6.00
2022-11-04T13:22:47.282Z,5.82
2022-11-04T13:24:06.416Z,6.80
2022-11-04T13:25:24.012Z,5.72
2022-11-04T13:26:27.527Z,6.30
2022-11-04T13:27:47.458Z,7.13
2022-11-04T13:29:16.310Z,6.03
2022-11-04T13:30:39.948Z,5.32
2022-11-04T13:31:51.685Z,6.65
2022-11-04T13:33:04.355Z,6.05
2022-11-04T13:34:33.172Z,6.35
2022-11-04T13:36:02.267Z,5.65
2022-11-04T13:37:33.894Z,6.43
2022-11-04T13:38:58.115Z,5.40
2022-11-04T13:40:11.654Z,6.10
2022-11-04T13:42:01.906Z,6.25
2022-11-04T13:43:40.071Z,6.00
2022-11-04T13:44:50.275Z,5.97
2022-11-04T13:45:55.985Z,4.85
2022-11-04T13:47:04.289Z,5.88
2022-11-04T13:48:12.096Z,5.65
2022-11-04T13:49:19.341Z,6.32
2022-11-04T13:50:40.772Z,6.40
2022-11-04T13:51:48.370Z,4.70
2022-11-04T13:52:52.992Z,5.70
2022-11-04T13:53:58.089Z,5.75
2022-11-04T13:55:08.706Z,5.85
2022-11-04T13:56:36.667Z,4.97
2022-11-04T13:58:00.028Z,5.80
2022-11-04T13:59:27.716Z,5.28
2022-11-04T14:00:33.302Z,5.68
2022-11-04T14:01:36.766Z,5.55
2022-11-04T14:02:45.792Z,5.88
2022-11-04T14:04:14.112Z,5.05
2022-11-04T14:05:24.046Z,5.60
2022-11-04T14:07:02.070Z,4.72
2022-11-04T14:08:12.353Z,5.28
2022-11-04T14:09:35.423Z,5.88
2022-11-04T14:10:50.435Z,5.72
2022-11-04T14:12:14.575Z,5.70
2022-11-04T14:13:37.699Z,6.32
2022-11-04T14:14:51.635Z,5.80
2022-11-04T14:16:09.774Z,6.90
2022-11-04T14:17:34.627Z,5.78
2022-11-04T14:18:42.995Z,6.40
2022-11-04T14:20:33.292Z,6.85
2022-11-04T14:22:07.797Z,6.30
2022-11-04T14:23:24.112Z,6.32
2022-11-04T14:24:31.047Z,6.32
2022-11-04T14:25:38.923Z,6.57
2022-11-04T14:26:46.751Z,6.95
2022-11-04T14:28:12.614Z,7.22
2022-11-04T14:29:26.192Z,5.35
2022-11-04T14:30:35.380Z,6.53
2022-11-04T14:31:46.836Z,6.03
2022-11-04T14:33:01.301Z,5.78
2022-11-04T14:34:05.912Z,6.95
2022-11-04T14:35:18.323Z,6.07
2022-11-04T14:36:21.207Z,5.85
2022-11-04T14:37:30.616Z,5.55
2022-11-04T14:38:34.623Z,6.00
2022-11-04T14:39:42.269Z,5.97
2022-11-04T14:40:52.438Z,6.38
2022-11-04T14:42:03.947Z,6.72
2022-11-04T14:43:36.207Z,6.32
2022-11-04T14:44:49.894Z,6.28
2022-11-04T14:45:55.834Z,6.22
2022-11-04T14:47:26.555Z,5.95
2022-11-04T14:48:31.845Z,6.13
2022-11-04T14:49:48.506Z,6.18
2022-11-04T14:50:54.363Z,6.63
2022-11-04T14:51:59.016Z,7.10
2022-11-04T14:53:07.815Z,5.95
2022-11-04T14:54:22.351Z,6.15
2022-11-04T14:55:31.456Z,7.18
2022-11-04T14:56:34.764Z,6.70
2022-11-04T14:57:45.158Z,6.55
2022-11-04T14:58:59.580Z,6.00
2022-11-04T15:00:39.004Z,6.18
2022-11-04T15:01:42.868Z,6.47
2022-11-04T15:02:46.071Z,7.40
2022-11-04T15:05:27.544Z,6.57
2022-11-04T15:06:40.703Z,7.35
2022-11-04T15:07:50.469Z,6.93
2022-11-04T15:08:54.254Z,5.72
2022-11-04T15:09:57.361Z,8.13
2022-11-04T15:11:39.156Z,6.53
2022-11-04T15:12:51.350Z,7.35
2022-11-04T15:13:59.459Z,7.38
2022-11-04T15:15:20.087Z,7.43
2022-11-04T15:16:29.988Z,6.93
2022-11-04T15:17:34.265Z,6.20
2022-11-04T15:18:41.075Z,6.10
2022-11-04T15:19:51.592Z,6.63
2022-11-04T15:21:03.174Z,6.90
2022-11-04T15:22:07.211Z,6.13
2022-11-04T15:23:26.292Z,7.15
2022-11-04T15:24:29.841Z,7.15
2022-11-04T15:25:33.609Z,6.30
2022-11-04T15:26:36.779Z,6.35
2022-11-04T15:27:41.682Z,5.82
2022-11-04T15:28:48.771Z,5.72
2022-11-04T15:30:02.825Z,6.93
2022-11-04T15:31:17.330Z,5.45
2022-11-04T15:32:20.414Z,6.50
2022-11-04T15:33:27.601Z,5.88
2022-11-04T15:34:31.676Z,6.88
2022-11-04T15:35:35.004Z,7.28
2022-11-04T15:36:41.777Z,6.10
2022-11-04T15:37:45.585Z,6.40
2022-11-04T15:39:14.434Z,6.55
2022-11-04T15:40:17.879Z,6.38
2022-11-04T15:41:41.984Z,6.90
2022-11-04T15:42:46.568Z,6.53
2022-11-04T15:43:50.009Z,6.03
2022-11-04T15:44:55.451Z,6.72
2022-11-04T15:45:58.785Z,6.63
2022-11-04T15:47:18.350Z,6.57
2022-11-04T15:48:38.076Z,6.05
2022-11-04T15:49:41.179Z,6.75
2022-11-04T15:50:45.070Z,8.02
2022-11-04T15:51:49.216Z,6.97
2022-11-04T15:52:56.034Z,7.80
2022-11-04T15:54:05.661Z,7.10
2022-11-04T15:55:23.885Z,6.82
2022-11-04T15:56:55.393Z,7.07
2022-11-04T15:57:58.429Z,7.57
2022-11-04T15:59:03.075Z,7.70
2022-11-04T16:00:26.211Z,6.88
2022-11-04T16:01:29.522Z,7.32
2022-11-04T16:02:47.062Z,6.75
2022-11-04T16:03:58.062Z,7.07
2022-11-04T16:05:11.488Z,6.32
2022-11-04T16:06:14.538Z,6.95
2022-11-04T16:07:17.518Z,7.10